Time;durP1;ratioP1;P1;durP2;ratioP2;P2;SDS_P1;SDS_P2;PMS_P1;PMS_P2;Temp;Humidity;BMP_temperature;BMP_pressure;BME280_temperature;BME280_humidity;BME280_pressure;Samples;Min_cycle;Max_cycle;Signal;HPM_P1;HPM_P2
2022/07/02 00:00:11;;;;;;;8.90;2.95;;;;;;;11.77;100.00;102180.94;5245500;28;20032;-70
2022/07/02 00:02:43;;;;;;;6.15;2.80;;;;;;;11.81;100.00;102182.38;5245590;28;20028;-70
2022/07/02 00:05:19;;;;;;;4.22;2.55;;;;;;;11.82;100.00;102184.09;5250624;28;20032;-70
2022/07/02 00:07:50;;;;;;;6.68;3.20;;;;;;;11.80;100.00;102178.84;5266539;28;20110;-70
2022/07/02 00:10:21;;;;;;;6.50;3.53;;;;;;;11.80;100.00;102181.53;5252183;28;20021;-70
2022/07/02 00:12:52;;;;;;;7.68;3.47;;;;;;;11.78;100.00;102178.09;5245390;28;20082;-70
2022/07/02 00:15:23;;;;;;;7.50;3.80;;;;;;;11.76;100.00;102169.34;5244340;28;20033;-70
2022/07/02 00:17:54;;;;;;;7.05;3.60;;;;;;;11.75;100.00;102172.19;5254860;28;20032;-70
2022/07/02 00:20:24;;;;;;;10.15;3.55;;;;;;;11.75;100.00;102164.97;5262948;28;20039;-70
2022/07/02 00:22:55;;;;;;;13.32;3.70;;;;;;;11.78;100.00;102163.81;5259737;28;20044;-70
2022/07/02 00:25:31;;;;;;;7.03;3.33;;;;;;;11.79;100.00;102165.50;5246899;28;20055;-70
2022/07/02 00:28:02;;;;;;;10.52;3.08;;;;;;;11.81;100.00;102164.41;5246484;28;20047;-70
2022/07/02 00:30:33;;;;;;;7.40;3.17;;;;;;;11.84;100.00;102168.66;5245141;28;20024;-70
2022/07/02 00:33:04;;;;;;;6.45;3.08;;;;;;;11.88;100.00;102167.38;5249371;28;20032;-70
2022/07/02 00:35:35;;;;;;;12.68;3.70;;;;;;;11.90;100.00;102168.94;5265804;28;20024;-70
2022/07/02 00:38:06;;;;;;;5.32;3.33;;;;;;;11.94;100.00;102172.19;5265639;28;20111;-70
2022/07/02 00:40:38;;;;;;;6.57;3.85;;;;;;;11.98;100.00;102170.91;5265581;28;20032;-70
2022/07/02 00:43:09;;;;;;;8.05;2.90;;;;;;;12.03;100.00;102179.41;5265521;28;20030;-70
2022/07/02 00:45:40;;;;;;;6.85;3.45;;;;;;;12.08;100.00;102176.28;5264320;28;20081;-70
2022/07/02 00:48:13;;;;;;;5.80;3.00;;;;;;;12.10;100.00;102164.41;5257574;28;20419;-70
2022/07/02 00:50:44;;;;;;;6.07;3.08;;;;;;;12.13;100.00;102171.31;5258476;28;20035;-70
2022/07/02 00:53:14;;;;;;;11.68;3.63;;;;;;;12.16;100.00;102157.59;5264408;28;20028;-70
2022/07/02 00:55:45;;;;;;;7.82;3.47;;;;;;;12.18;100.00;102161.81;5249040;28;20028;-70
2022/07/02 00:58:15;;;;;;;7.38;3.58;;;;;;;12.21;100.00;102157.16;5253572;28;20024;-70
2022/07/02 01:00:46;;;;;;;5.75;3.45;;;;;;;12.24;100.00;102157.69;5265676;28;20553;-74
2022/07/02 01:03:18;;;;;;;9.23;3.45;;;;;;;12.26;100.00;102153.03;5255845;28;20064;-70
2022/07/02 01:05:51;;;;;;;8.23;3.60;;;;;;;12.29;100.00;102154.56;5256359;28;20469;-70
2022/07/02 01:11:13;;;;;;;10.18;3.33;;;;;;;12.32;100.00;102151.59;5245290;28;20078;-71
2022/07/02 01:13:44;;;;;;;6.60;3.33;;;;;;;12.32;100.00;102149.75;5245005;28;20020;-70
2022/07/02 01:16:14;;;;;;;7.30;3.30;;;;;;;12.33;100.00;102150.59;5244868;28;20052;-70
2022/07/02 01:18:45;;;;;;;5.28;3.20;;;;;;;12.31;100.00;102153.44;5248412;28;20545;-70
2022/07/02 01:21:15;;;;;;;6.25;3.60;;;;;;;12.32;100.00;102154.28;5265376;28;20488;-70
2022/07/02 01:23:46;;;;;;;4.70;3.20;;;;;;;12.32;100.00;102163.22;5244805;28;20024;-70
2022/07/02 01:26:17;;;;;;;4.20;2.90;;;;;;;12.32;100.00;102162.38;5244300;28;20030;-70
2022/07/02 01:28:47;;;;;;;10.73;3.47;;;;;;;12.31;100.00;102160.66;5260860;28;20028;-70
2022/07/02 01:31:19;;;;;;;7.07;3.42;;;;;;;12.33;100.00;102170.28;5257590;28;20024;-70
2022/07/02 01:33:49;;;;;;;7.38;3.42;;;;;;;12.36;100.00;102163.78;5245400;28;20028;-70
2022/07/02 01:36:20;;;;;;;6.50;3.45;;;;;;;12.40;100.00;102170.56;5244642;28;20032;-70
2022/07/02 01:38:51;;;;;;;9.57;3.65;;;;;;;12.42;100.00;102174.78;5245372;28;20033;-70
2022/07/02 01:44:11;;;;;;;9.13;3.58;;;;;;;12.49;100.00;102171.50;5256384;28;20085;-70
2022/07/02 01:46:44;;;;;;;7.40;3.38;;;;;;;12.49;100.00;102161.59;5264191;28;20103;-70
2022/07/02 01:49:27;;;;;;;8.68;3.45;;;;;;;12.51;100.00;102165.00;5265323;28;20488;-70
2022/07/02 01:51:58;;;;;;;6.68;3.08;;;;;;;12.49;100.00;102169.66;5265480;28;20058;-70
2022/07/02 01:54:29;;;;;;;8.18;3.22;;;;;;;12.47;100.00;102163.59;5250499;28;20549;-70
2022/07/02 01:57:00;;;;;;;5.60;3.55;;;;;;;12.46;100.00;102172.66;5261249;28;20020;-70
2022/07/02 01:59:32;;;;;;;6.20;3.53;;;;;;;12.44;100.00;102167.41;5243989;28;20409;-70
2022/07/02 02:02:04;;;;;;;6.68;3.33;;;;;;;12.42;100.00;102164.03;5244478;28;20088;-70
2022/07/02 02:04:47;;;;;;;7.82;3.55;;;;;;;12.40;100.00;102166.03;5246988;28;20032;-71
2022/07/02 02:07:17;;;;;;;6.10;3.63;;;;;;;12.39;100.00;102164.31;5265211;28;20031;-70
2022/07/02 02:09:48;;;;;;;9.13;3.55;;;;;;;12.39;100.00;102158.06;5265145;28;20073;-70
2022/07/02 02:12:19;;;;;;;7.72;3.53;;;;;;;12.42;100.00;102155.94;5247651;28;20384;-70
2022/07/02 02:14:50;;;;;;;5.15;3.72;;;;;;;12.43;100.00;102172.94;5244193;28;20025;-70
2022/07/02 02:17:21;;;;;;;6.22;3.30;;;;;;;12.43;100.00;102171.09;5262704;28;20020;-70
2022/07/02 02:19:51;;;;;;;6.10;3.25;;;;;;;12.39;100.00;102166.16;5254970;28;20041;-70
2022/07/02 02:22:22;;;;;;;6.78;3.65;;;;;;;12.33;100.00;102162.22;5257575;28;20020;-70
2022/07/02 02:24:53;;;;;;;7.50;3.70;;;;;;;12.26;100.00;102161.09;5268592;28;20111;-70
2022/07/02 02:27:23;;;;;;;6.63;3.35;;;;;;;12.16;100.00;102161.13;5268976;28;20030;-70
2022/07/02 02:29:54;;;;;;;5.30;3.53;;;;;;;12.10;100.00;102158.19;5266104;28;20541;-70
2022/07/02 02:32:24;;;;;;;8.25;4.13;;;;;;;12.05;100.00;102163.97;5264116;28;20024;-70
2022/07/02 02:34:55;;;;;;;7.80;3.65;;;;;;;12.00;100.00;102163.56;5265470;28;20128;-70
2022/07/02 02:37:25;;;;;;;5.72;3.70;;;;;;;11.97;100.00;102166.53;5247955;28;20450;-70
2022/07/02 02:39:56;;;;;;;8.23;4.53;;;;;;;11.96;100.00;102162.16;5265535;28;20058;-70
2022/07/02 02:42:26;;;;;;;6.32;4.15;;;;;;;11.95;100.00;102162.28;5257362;28;20017;-70
2022/07/02 02:44:57;;;;;;;4.90;3.25;;;;;;;11.94;100.00;102164.13;5247514;28;20495;-71
2022/07/02 02:47:28;;;;;;;9.18;4.05;;;;;;;11.91;100.00;102157.19;5269336;28;20038;-70
2022/07/02 02:49:58;;;;;;;5.03;3.70;;;;;;;11.87;100.00;102155.78;5269496;28;20032;-70
2022/07/02 02:52:29;;;;;;;6.72;3.92;;;;;;;11.80;100.00;102159.16;5253752;28;20025;-70
2022/07/02 02:55:00;;;;;;;8.48;4.10;;;;;;;11.75;100.00;102154.22;5247410;28;20056;-70
2022/07/02 02:57:31;;;;;;;8.02;3.88;;;;;;;11.72;100.00;102156.31;5247385;28;20017;-70
2022/07/02 03:00:02;;;;;;;7.70;4.05;;;;;;;11.67;100.00;102157.59;5245986;28;20654;-70
2022/07/02 03:02:32;;;;;;;8.30;3.55;;;;;;;11.62;100.00;102157.16;5263552;28;20048;-70
2022/07/02 03:05:03;;;;;;;5.18;2.33;;;;;;;11.59;100.00;102168.19;5267824;28;20548;-70
2022/07/02 03:07:34;;;;;;;4.72;2.95;;;;;;;11.54;100.00;102162.38;5268256;28;20540;-70
2022/07/02 03:10:05;;;;;;;5.03;2.85;;;;;;;11.50;100.00;102157.47;5256116;28;20389;-70
2022/07/02 03:12:35;;;;;;;6.82;2.33;;;;;;;11.44;100.00;102156.16;5246812;28;20036;-70
2022/07/02 03:15:06;;;;;;;12.25;4.47;;;;;;;11.36;100.00;102166.78;5247232;28;20046;-70
2022/07/02 03:17:37;;;;;;;11.40;4.78;;;;;;;11.29;100.00;102166.47;5254906;28;20115;-70
2022/07/02 03:20:08;;;;;;;10.20;5.57;;;;;;;11.25;100.00;102169.59;5266810;28;20026;-70
2022/07/02 03:22:39;;;;;;;15.00;5.93;;;;;;;11.20;100.00;102171.84;5264343;28;20020;-70
2022/07/02 03:25:11;;;;;;;10.55;5.50;;;;;;;11.16;100.00;102165.88;5266983;28;20027;-70
2022/07/02 03:27:42;;;;;;;6.10;4.00;;;;;;;11.12;100.00;102169.84;5267958;28;20020;-70
2022/07/02 03:30:12;;;;;;;7.72;4.07;;;;;;;11.11;100.00;102173.50;5247489;28;20370;-70
2022/07/02 03:32:43;;;;;;;13.57;4.88;;;;;;;11.10;100.00;102174.50;5250372;28;20032;-71
2022/07/02 03:35:13;;;;;;;7.30;5.00;;;;;;;11.08;100.00;102187.19;5245217;28;20028;-71
2022/07/02 03:37:44;;;;;;;12.50;5.80;;;;;;;11.04;100.00;102178.56;5246634;28;20025;-70
2022/07/02 03:40:14;;;;;;;11.30;4.90;;;;;;;11.02;100.00;102183.22;5251672;28;20507;-70
2022/07/02 03:42:45;;;;;;;12.68;4.60;;;;;;;10.99;100.00;102180.81;5266525;28;20024;-71
2022/07/02 03:45:15;;;;;;;13.77;4.85;;;;;;;10.94;100.00;102185.72;5258421;28;20060;-70
2022/07/02 03:47:46;;;;;;;9.02;4.80;;;;;;;10.91;100.00;102193.22;5258103;28;20073;-70
2022/07/02 03:50:17;;;;;;;14.15;5.03;;;;;;;10.84;100.00;102191.09;5237682;28;20499;-70
2022/07/02 03:52:47;;;;;;;10.52;5.10;;;;;;;10.81;100.00;102195.88;5264402;28;20021;-70
2022/07/02 03:55:18;;;;;;;15.32;5.40;;;;;;;10.77;100.00;102186.38;5256448;28;20262;-70
2022/07/02 03:57:48;;;;;;;10.38;5.32;;;;;;;10.74;100.00;102192.00;5255102;28;20052;-70
2022/07/02 04:00:19;;;;;;;15.55;4.80;;;;;;;10.71;100.00;102190.47;5245998;28;20115;-70
2022/07/02 04:02:49;;;;;;;13.88;4.65;;;;;;;10.70;100.00;102191.47;5246212;28;20016;-70
2022/07/02 04:05:20;;;;;;;5.78;4.15;;;;;;;10.69;100.00;102195.09;5257482;28;20231;-70
2022/07/02 04:07:51;;;;;;;11.07;5.70;;;;;;;10.71;100.00;102195.84;5265819;28;20023;-70
2022/07/02 04:10:21;;;;;;;9.90;4.38;;;;;;;10.73;100.00;102199.22;5252598;28;20451;-71
2022/07/02 04:12:52;;;;;;;5.25;3.78;;;;;;;10.75;100.00;102201.78;5254727;28;20016;-70
2022/07/02 04:15:22;;;;;;;5.72;3.60;;;;;;;10.75;100.00;102199.09;5250811;28;20111;-70
2022/07/02 04:17:53;;;;;;;8.48;4.68;;;;;;;10.78;100.00;102204.19;5245950;28;20046;-70
2022/07/02 04:20:23;;;;;;;11.52;5.05;;;;;;;10.82;100.00;102200.25;5261792;28;20028;-72
2022/07/02 04:22:54;;;;;;;11.90;6.47;;;;;;;10.88;100.00;102199.72;5252658;28;20025;-70
2022/07/02 04:25:24;;;;;;;11.27;4.90;;;;;;;10.96;100.00;102202.56;5244808;28;20063;-70
2022/07/02 04:27:55;;;;;;;11.20;5.80;;;;;;;11.03;100.00;102198.34;5246682;28;20377;-70
2022/07/02 04:30:26;;;;;;;10.80;5.72;;;;;;;11.09;100.00;102195.16;5245285;28;20444;-70
2022/07/02 04:32:56;;;;;;;9.15;5.00;;;;;;;11.17;100.00;102201.66;5248842;28;20024;-70
2022/07/02 04:35:27;;;;;;;10.13;6.15;;;;;;;11.22;100.00;102204.78;5257099;28;20028;-70
2022/07/02 04:37:57;;;;;;;10.13;4.72;;;;;;;11.28;100.00;102210.44;5246861;28;20464;-70
2022/07/02 04:40:28;;;;;;;10.07;5.03;;;;;;;11.33;100.00;102210.88;5246130;28;20035;-70
2022/07/02 04:42:58;;;;;;;10.25;5.38;;;;;;;11.41;100.00;102210.19;5245357;28;20017;-70
2022/07/02 04:45:29;;;;;;;7.93;4.60;;;;;;;11.53;100.00;102202.84;5245458;28;20028;-70
2022/07/02 04:48:00;;;;;;;13.70;5.65;;;;;;;11.68;100.00;102199.59;5262362;28;20038;-70
2022/07/02 04:50:30;;;;;;;7.65;5.03;;;;;;;11.84;100.00;102203.59;5259556;28;20137;-70
2022/07/02 04:53:01;;;;;;;7.50;4.80;;;;;;;11.99;100.00;102202.19;5255804;28;20127;-70
2022/07/02 04:55:31;;;;;;;11.82;5.97;;;;;;;12.16;100.00;102204.16;5251306;28;20039;-70
2022/07/02 04:58:02;;;;;;;10.35;5.30;;;;;;;12.39;100.00;102196.59;5249300;28;20024;-70
2022/07/02 05:00:32;;;;;;;11.85;4.32;;;;;;;12.62;100.00;102201.66;5243046;28;20024;-71
2022/07/02 05:03:03;;;;;;;9.77;5.25;;;;;;;12.79;100.00;102197.34;5241967;28;20024;-71
2022/07/02 05:05:33;;;;;;;12.65;5.22;;;;;;;12.99;100.00;102200.78;5250660;28;20016;-70
2022/07/02 05:08:04;;;;;;;7.75;4.10;;;;;;;13.13;100.00;102197.59;5251614;28;20045;-70
2022/07/02 05:10:34;;;;;;;9.15;3.67;;;;;;;13.24;100.00;102193.88;5247796;28;20267;-70
2022/07/02 05:13:05;;;;;;;13.20;4.38;;;;;;;13.30;100.00;102198.66;5243185;28;20024;-70
2022/07/02 05:15:36;;;;;;;10.57;4.90;;;;;;;13.31;100.00;102197.69;5242643;28;20028;-70
2022/07/02 05:18:07;;;;;;;7.55;4.65;;;;;;;13.30;100.00;102187.88;5243080;28;20016;-70
2022/07/02 05:20:37;;;;;;;10.90;3.90;;;;;;;13.29;100.00;102184.34;5242382;28;20035;-70
2022/07/02 05:23:09;;;;;;;12.05;4.25;;;;;;;13.26;100.00;102181.13;5259145;28;20472;-70
2022/07/02 05:25:39;;;;;;;5.97;3.97;;;;;;;13.25;100.00;102192.88;5243848;28;20032;-70
2022/07/02 05:28:10;;;;;;;7.28;4.03;;;;;;;13.24;100.00;102194.72;5244453;28;20049;-70
2022/07/02 05:30:40;;;;;;;9.35;3.88;;;;;;;13.27;100.00;102199.81;5225586;28;20298;-70
2022/07/02 05:33:11;;;;;;;12.07;3.80;;;;;;;13.34;100.00;102192.81;5248741;28;20025;-71
2022/07/02 05:35:41;;;;;;;9.05;3.65;;;;;;;13.43;100.00;102194.63;5251114;28;20028;-70
2022/07/02 05:38:12;;;;;;;7.88;3.75;;;;;;;13.55;100.00;102195.22;5246757;28;20028;-71
2022/07/02 05:40:43;;;;;;;9.73;3.50;;;;;;;13.68;100.00;102198.41;5241522;28;20614;-70
2022/07/02 05:43:13;;;;;;;8.25;4.25;;;;;;;13.84;100.00;102199.56;5242920;28;20073;-70
2022/07/02 05:45:44;;;;;;;7.47;3.70;;;;;;;13.97;100.00;102208.97;5241412;28;20031;-70
2022/07/02 05:48:14;;;;;;;8.30;3.15;;;;;;;14.10;100.00;102200.44;5260036;28;20027;-70
2022/07/02 05:50:45;;;;;;;10.85;3.35;;;;;;;14.17;100.00;102198.84;5250989;28;20496;-71
2022/07/02 05:53:16;;;;;;;6.05;3.08;;;;;;;14.32;100.00;102200.97;5242814;28;20035;-71
2022/07/02 05:55:46;;;;;;;5.25;2.80;;;;;;;14.46;100.00;102203.09;5246568;28;20115;-71
2022/07/02 05:58:17;;;;;;;8.30;2.35;;;;;;;14.64;100.00;102195.78;5254559;28;20025;-71
2022/07/02 06:00:47;;;;;;;5.32;2.58;;;;;;;14.85;100.00;102200.78;5246691;28;20027;-71
2022/07/02 06:03:18;;;;;;;3.63;1.98;;;;;;;15.19;100.00;102198.06;5246398;28;20388;-71
2022/07/02 06:08:39;;;;;;;13.55;2.30;;;;;;;16.92;100.00;102178.97;5260061;28;20036;-71
2022/07/02 06:11:11;;;;;;;9.30;2.58;;;;;;;17.79;100.00;102179.66;5253919;28;20027;-71
2022/07/02 06:13:41;;;;;;;3.92;1.90;;;;;;;18.62;100.00;102181.44;5253526;28;20715;-71
2022/07/02 06:16:12;;;;;;;7.90;1.50;;;;;;;19.17;100.00;102184.69;5258980;28;20029;-71
2022/07/02 06:18:42;;;;;;;5.05;1.75;;;;;;;19.66;100.00;102189.47;5246358;28;20089;-71
2022/07/02 06:21:13;;;;;;;3.03;1.70;;;;;;;20.34;100.00;102184.41;5246136;28;20412;-71
2022/07/02 06:23:43;;;;;;;4.30;1.83;;;;;;;20.57;100.00;102185.00;5264201;28;20032;-71
2022/07/02 06:26:14;;;;;;;3.33;1.42;;;;;;;21.02;100.00;102187.34;5244305;28;20333;-71
2022/07/02 06:28:44;;;;;;;4.07;1.70;;;;;;;21.23;100.00;102187.22;5247892;28;20044;-71
2022/07/02 06:31:15;;;;;;;3.47;1.30;;;;;;;21.73;100.00;102180.44;5246330;28;20076;-72
2022/07/02 06:33:46;;;;;;;8.40;1.80;;;;;;;22.00;100.00;102183.22;5259672;28;20028;-72
2022/07/02 06:36:21;;;;;;;4.25;1.15;;;;;;;22.21;100.00;102184.91;5245807;28;20029;-72
2022/07/02 06:38:51;;;;;;;2.60;1.13;;;;;;;22.29;100.00;102181.97;5257518;28;20069;-71
2022/07/02 06:44:12;;;;;;;3.55;1.13;;;;;;;22.90;100.00;102184.41;5245782;28;20025;-72
2022/07/02 06:46:42;;;;;;;2.25;0.80;;;;;;;22.99;89.02;102182.22;5252065;28;20388;-72
2022/07/02 06:49:13;;;;;;;2.30;0.80;;;;;;;23.02;75.36;102184.56;5265699;28;20438;-72
2022/07/02 06:51:43;;;;;;;5.13;1.17;;;;;;;22.99;81.61;102184.97;5266963;28;20074;-72
2022/07/02 06:54:14;;;;;;;2.15;0.77;;;;;;;23.02;75.22;102178.25;5265900;28;20024;-72
2022/07/02 06:56:44;;;;;;;1.60;0.60;;;;;;;23.14;76.27;102180.06;5265673;28;20023;-72
2022/07/02 06:59:15;;;;;;;1.88;0.60;;;;;;;23.52;76.60;102182.81;5249619;28;20031;-72
2022/07/02 07:01:45;;;;;;;2.20;0.65;;;;;;;23.69;68.63;102180.41;5245370;28;20441;-72
2022/07/02 07:04:16;;;;;;;3.08;0.73;;;;;;;23.87;70.07;102182.41;5248035;28;20030;-72
2022/07/02 07:09:18;;;;;;;1.98;0.70;;;;;;;23.42;72.83;102181.63;5246671;28;20024;-72
2022/07/02 07:11:50;;;;;;;2.05;0.82;;;;;;;23.93;76.91;102178.75;5259334;28;20028;-72
2022/07/02 07:14:20;;;;;;;3.03;0.50;;;;;;;24.49;67.44;102180.59;5245389;28;20104;-72
2022/07/02 07:16:51;;;;;;;4.05;0.73;;;;;;;24.62;70.31;102187.03;5260175;28;20150;-72
2022/07/02 07:19:21;;;;;;;2.38;0.77;;;;;;;24.55;66.02;102181.63;5265928;28;20020;-72
2022/07/02 07:21:52;;;;;;;5.38;0.75;;;;;;;24.57;65.55;102192.38;5260667;28;20036;-72
2022/07/02 07:24:22;;;;;;;3.35;0.75;;;;;;;24.52;71.38;102188.38;5244994;28;20048;-72
2022/07/02 07:26:53;;;;;;;1.42;0.70;;;;;;;24.68;67.49;102186.13;5245251;28;20733;-72
2022/07/02 07:29:24;;;;;;;2.75;0.85;;;;;;;24.90;63.19;102184.59;5258102;28;20073;-72
2022/07/02 07:31:54;;;;;;;13.82;0.80;;;;;;;25.01;63.42;102177.50;5257913;28;20031;-72
2022/07/02 07:34:25;;;;;;;3.53;0.60;;;;;;;24.98;65.68;102176.03;5253509;28;20120;-72
2022/07/02 07:36:55;;;;;;;1.58;0.70;;;;;;;25.09;62.83;102166.22;5251883;28;20036;-72
2022/07/02 07:39:26;;;;;;;1.95;0.63;;;;;;;25.11;59.62;102171.50;5252745;28;20552;-72
2022/07/02 07:41:56;;;;;;;3.40;0.75;;;;;;;24.68;62.56;102165.00;5245151;28;20074;-72
2022/07/02 07:44:27;;;;;;;1.52;0.73;;;;;;;24.80;62.09;102165.94;5244777;28;20100;-72
2022/07/02 07:46:58;;;;;;;2.30;0.52;;;;;;;24.98;65.70;102166.97;5252791;28;20048;-72
2022/07/02 07:49:28;;;;;;;3.28;0.88;;;;;;;25.03;64.93;102167.94;5252622;28;20103;-72
2022/07/02 07:51:59;;;;;;;6.88;0.80;;;;;;;25.11;61.50;102168.75;5245124;28;20032;-73
2022/07/02 07:54:29;;;;;;;7.90;1.20;;;;;;;25.12;61.89;102173.16;5244730;28;20514;-72
2022/07/02 07:57:00;;;;;;;2.78;1.02;;;;;;;25.12;60.48;102173.16;5248581;28;20473;-72
2022/07/02 07:59:30;;;;;;;3.03;0.85;;;;;;;25.20;61.95;102170.09;5247241;28;20040;-72
2022/07/02 08:02:01;;;;;;;9.98;1.00;;;;;;;25.51;64.44;102175.38;5244460;28;20522;-72
2022/07/02 08:04:34;;;;;;;6.75;1.35;;;;;;;25.77;58.09;102167.81;5263118;28;20020;-72
2022/07/02 08:07:04;;;;;;;6.00;0.98;;;;;;;25.81;61.07;102174.53;5250724;28;20021;-72
2022/07/02 08:09:35;;;;;;;4.18;1.00;;;;;;;25.98;61.71;102175.50;5242590;28;20399;-72
2022/07/02 08:12:05;;;;;;;4.93;1.20;;;;;;;25.27;58.84;102177.19;5258668;28;20034;-72
2022/07/02 08:14:36;;;;;;;5.65;1.13;;;;;;;24.86;61.78;102174.31;5252325;28;20103;-72
2022/07/02 08:17:06;;;;;;;2.53;0.93;;;;;;;25.47;63.49;102171.41;5251529;28;20399;-72
2022/07/02 08:19:37;;;;;;;1.25;0.70;;;;;;;25.78;59.10;102172.25;5265421;28;20020;-72
2022/07/02 08:22:07;;;;;;;4.13;1.00;;;;;;;25.47;61.79;102178.81;5250409;28;20502;-72
2022/07/02 08:24:38;;;;;;;5.15;0.88;;;;;;;25.79;63.37;102176.66;5256662;28;20055;-73
2022/07/02 08:27:08;;;;;;;3.35;0.88;;;;;;;25.78;61.42;102172.25;5257627;28;20128;-73
2022/07/02 08:29:39;;;;;;;6.65;1.10;;;;;;;25.17;61.82;102176.06;5246334;28;20424;-72
2022/07/02 08:32:10;;;;;;;2.03;0.80;;;;;;;25.17;63.14;102184.28;5248227;28;20032;-75
2022/07/02 08:34:40;;;;;;;1.77;0.93;;;;;;;24.86;63.29;102172.41;5243477;28;20082;-74
2022/07/02 08:37:11;;;;;;;3.95;1.13;;;;;;;24.80;64.88;102165.09;5252223;28;20468;-74
2022/07/02 08:39:42;;;;;;;3.75;0.70;;;;;;;25.41;65.20;102163.28;5247880;28;20032;-74
2022/07/02 08:42:23;;;;;;;2.90;0.90;;;;;;;25.88;65.20;102164.25;5243797;28;20032;-75
2022/07/02 08:44:55;;;;;;;1.23;0.65;;;;;;;26.17;61.89;102156.16;5243233;28;20024;-72
2022/07/02 08:47:26;;;;;;;5.22;0.90;;;;;;;26.16;62.70;102151.72;5254022;28;20100;-73
2022/07/02 08:49:58;;;;;;;4.55;0.77;;;;;;;25.68;64.43;102147.22;5257002;28;20013;-72
2022/07/02 08:52:29;;;;;;;4.68;1.15;;;;;;;25.40;59.40;102147.84;5256487;28;20055;-73
2022/07/02 08:55:00;;;;;;;3.03;1.05;;;;;;;24.76;64.90;102145.50;5256281;28;20052;-73
2022/07/02 08:57:32;;;;;;;3.35;1.08;;;;;;;25.04;65.51;102141.34;5249547;28;20020;-73
2022/07/02 09:00:04;;;;;;;2.28;0.93;;;;;;;25.04;67.98;102142.16;5243478;28;20029;-73
2022/07/02 09:02:36;;;;;;;3.25;0.98;;;;;;;25.28;67.35;102139.56;5242863;28;20012;-73
2022/07/02 09:05:08;;;;;;;5.25;1.15;;;;;;;25.40;66.95;102117.63;5242079;28;20108;-73
2022/07/02 09:07:40;;;;;;;2.90;0.90;;;;;;;25.22;65.66;102124.03;5248854;28;20544;-73
2022/07/02 09:10:11;;;;;;;5.68;1.10;;;;;;;25.02;64.57;102122.34;5264408;28;20024;-73
2022/07/02 09:12:42;;;;;;;3.33;1.00;;;;;;;24.94;66.39;102119.09;5242272;28;20013;-73
2022/07/02 09:15:14;;;;;;;5.70;1.27;;;;;;;25.13;68.00;102129.00;5241568;28;20484;-73
2022/07/02 09:17:44;;;;;;;5.20;1.30;;;;;;;25.26;63.39;102119.75;5243626;28;20024;-73
2022/07/02 09:20:15;;;;;;;5.32;1.08;;;;;;;25.89;63.10;102118.34;5243038;28;20035;-73
2022/07/02 09:22:49;;;;;;;2.90;1.13;;;;;;;25.47;64.65;102105.47;5245301;28;20024;-72
2022/07/02 09:25:23;;;;;;;6.83;1.20;;;;;;;25.08;67.13;102111.53;5259935;28;20106;-72
2022/07/02 09:28:13;;;;;;;3.92;1.00;;;;;;;25.04;66.71;102094.66;5252898;28;20024;-73
2022/07/02 09:30:44;;;;;;;5.43;1.23;;;;;;;25.59;67.36;102097.25;5252064;28;20448;-73
2022/07/02 09:36:10;;;;;;;2.88;0.75;;;;;;;25.64;61.03;102091.88;5263993;28;20035;-73
2022/07/02 09:38:42;;;;;;;;;;;;;;;25.96;58.58;102097.09;5264602;28;20020;-73
2022/07/02 09:41:15;;;;;;;4.63;1.00;;;;;;;25.36;61.23;102081.56;5248996;28;19962;-75
2022/07/02 09:43:45;;;;;;;5.95;1.00;;;;;;;24.99;63.41;102089.88;5251421;28;20050;-75
2022/07/02 09:46:18;;;;;;;5.65;0.95;;;;;;;25.42;64.84;102093.53;5247330;28;20068;-75
2022/07/02 09:48:48;;;;;;;1.80;0.93;;;;;;;25.62;57.93;102083.03;5253151;28;20481;-72
2022/07/02 09:51:19;;;;;;;6.20;1.08;;;;;;;25.45;59.00;102088.41;5242944;28;20301;-73
2022/07/02 09:53:52;;;;;;;1.58;0.85;;;;;;;25.64;58.07;102071.81;5254630;28;20020;-73
2022/07/02 09:56:24;;;;;;;2.92;1.00;;;;;;;25.36;59.28;102081.56;5248877;28;20573;-73
2022/07/02 09:58:54;;;;;;;3.92;0.98;;;;;;;24.48;61.22;102077.44;5248166;28;20032;-73
2022/07/02 10:01:25;;;;;;;5.43;0.70;;;;;;;24.57;64.07;102079.88;5256362;28;20021;-73
2022/07/02 10:03:56;;;;;;;2.20;0.63;;;;;;;24.64;56.10;102080.63;5244089;28;20074;-73
2022/07/02 10:06:26;;;;;;;1.25;0.70;;;;;;;24.92;53.51;102083.63;5262301;28;20031;-73
2022/07/02 10:08:57;;;;;;;7.43;0.80;;;;;;;23.77;57.67;102083.41;5247570;28;20396;-73
2022/07/02 10:11:28;;;;;;;3.85;1.23;;;;;;;23.67;60.74;102072.97;5241298;28;20029;-74
2022/07/02 10:14:00;;;;;;;4.50;0.98;;;;;;;23.60;61.58;102071.31;5242862;28;20024;-72
2022/07/02 10:16:31;;;;;;;2.00;0.70;;;;;;;23.51;62.84;102063.38;5257995;28;20369;-75
2022/07/02 10:19:03;;;;;;;4.93;0.80;;;;;;;23.31;63.81;102068.16;5247407;28;20020;-75
2022/07/02 10:21:35;;;;;;;3.03;0.75;;;;;;;23.26;67.12;102068.00;5253493;28;20024;-74
2022/07/02 10:24:07;;;;;;;4.25;0.93;;;;;;;23.59;61.79;102066.88;5252847;28;20017;-74
2022/07/02 10:26:37;;;;;;;1.30;0.80;;;;;;;23.64;63.24;102065.19;5259912;28;20502;-75
2022/07/02 10:29:09;;;;;;;3.13;1.02;;;;;;;23.15;63.85;102072.28;5251532;28;20021;-75
2022/07/02 10:31:48;;;;;;;3.03;0.90;;;;;;;23.02;63.15;102066.03;5248490;28;20027;-75
2022/07/02 10:34:35;;;;;;;6.13;0.82;;;;;;;23.62;62.94;102063.72;5248095;28;20107;-75
2022/07/02 10:37:06;;;;;;;2.47;0.82;;;;;;;23.52;64.05;102058.72;5264409;28;20066;-74
2022/07/02 10:39:39;;;;;;;1.95;0.68;;;;;;;23.53;66.92;102063.13;5263847;28;20048;-75
2022/07/02 10:42:10;;;;;;;2.72;0.85;;;;;;;23.18;65.20;102060.88;5267600;28;20110;-75
2022/07/02 10:44:42;;;;;;;4.22;0.90;;;;;;;23.33;69.08;102060.56;5250038;28;20036;-74
2022/07/02 10:47:31;;;;;;;1.60;0.73;;;;;;;23.64;64.93;102058.88;5257085;28;20365;-75
2022/07/02 10:50:02;;;;;;;4.57;0.95;;;;;;;23.42;64.99;102053.75;5252914;28;20024;-75
2022/07/02 10:52:51;;;;;;;5.88;0.93;;;;;;;23.04;65.48;102061.16;5250329;28;20020;-75
2022/07/02 10:55:25;;;;;;;4.00;0.95;;;;;;;23.00;66.33;102060.78;5257015;28;20399;-74
2022/07/02 10:57:58;;;;;;;5.07;1.17;;;;;;;23.30;67.35;102054.72;5266715;28;20024;-74
2022/07/02 11:00:31;;;;;;;2.92;0.88;;;;;;;24.14;65.85;102042.34;5252926;28;20070;-74
2022/07/02 11:03:22;;;;;;;3.75;0.88;;;;;;;24.38;64.26;102046.97;5253345;28;20016;-75
2022/07/02 11:05:55;;;;;;;5.25;0.70;;;;;;;24.79;65.58;102042.66;5260698;28;20065;-75
2022/07/02 11:08:46;;;;;;;5.40;0.80;;;;;;;24.95;57.95;102047.50;5266197;28;20416;-75
2022/07/02 11:11:17;;;;;;;3.95;0.73;;;;;;;25.08;58.91;102040.16;5245385;28;20107;-75
2022/07/02 11:13:57;;;;;;;4.63;0.75;;;;;;;25.18;59.98;102040.44;5260013;28;20145;-75
2022/07/02 11:16:48;;;;;;;6.03;0.57;;;;;;;24.37;57.52;102030.75;5255410;28;20079;-75
2022/07/02 11:19:24;;;;;;;3.95;0.43;;;;;;;24.06;60.55;102042.69;5252453;28;20208;-74
2022/07/02 11:21:58;;;;;;;4.78;0.60;;;;;;;23.80;60.50;102032.78;5261906;28;20074;-75
2022/07/02 11:24:30;;;;;;;12.00;1.05;;;;;;;23.63;62.91;102038.84;5265598;28;20012;-75
2022/07/02 11:27:01;;;;;;;3.45;0.73;;;;;;;23.57;63.06;102028.78;5253350;28;20544;-75
2022/07/02 11:29:31;;;;;;;0.88;0.50;;;;;;;23.78;62.86;102024.81;5246667;28;20115;-75
2022/07/02 11:32:02;;;;;;;1.27;0.50;;;;;;;24.09;60.36;102026.59;5257629;28;20320;-75
2022/07/02 11:34:33;;;;;;;3.83;0.43;;;;;;;24.73;61.99;102018.88;5264881;28;20017;-75
2022/07/02 11:37:03;;;;;;;2.25;0.57;;;;;;;24.87;58.21;102023.13;5266156;28;20032;-75
2022/07/02 11:39:34;;;;;;;2.60;0.50;;;;;;;24.90;59.88;102010.81;5251711;28;20583;-75
2022/07/02 11:42:04;;;;;;;7.05;0.63;;;;;;;25.18;59.04;102007.47;5252932;28;20103;-75
2022/07/02 11:44:35;;;;;;;2.67;0.50;;;;;;;25.56;58.32;102005.16;5250001;28;20028;-76
2022/07/02 11:47:05;;;;;;;2.42;0.38;;;;;;;25.29;54.25;101998.41;5253670;28;20086;-76
2022/07/02 11:49:37;;;;;;;3.55;1.02;;;;;;;25.44;56.05;102001.53;5251805;28;20032;-75
2022/07/02 11:52:07;;;;;;;15.93;0.93;;;;;;;25.37;54.92;102008.25;5265735;28;20419;-75
2022/07/02 11:54:55;;;;;;;3.05;0.70;;;;;;;25.46;54.14;101996.66;5246978;28;20021;-75